createdAt,value
2022-07-26T16:19:34.937Z,98242.22
2022-07-26T16:22:03.060Z,98250.06
2022-07-26T16:24:30.155Z,98239.63
2022-07-26T16:26:56.725Z,98239.00
2022-07-26T16:29:23.477Z,98232.94
2022-07-26T16:31:50.318Z,98238.63
2022-07-26T16:34:16.844Z,98237.59
2022-07-26T16:36:43.399Z,98235.19
2022-07-26T16:39:10.360Z,98230.69
2022-07-26T16:41:37.162Z,98241.44
2022-07-26T16:44:03.902Z,98240.09
2022-07-26T16:46:30.620Z,98244.97
2022-07-26T16:48:57.238Z,98236.03
2022-07-26T16:51:23.740Z,98247.88
2022-07-26T16:55:04.345Z,98235.19
2022-07-26T16:57:30.876Z,98237.03
2022-07-26T16:59:57.464Z,98241.53
2022-07-26T17:02:24.172Z,98236.53
2022-07-26T17:04:50.769Z,98236.81
2022-07-26T17:07:26.133Z,98235.69
2022-07-26T17:09:54.440Z,98235.16
2022-07-26T17:12:21.597Z,98236.34
2022-07-26T17:14:48.184Z,98241.63
2022-07-26T17:17:14.876Z,98239.06
2022-07-26T17:19:41.485Z,98240.53
2022-07-26T17:22:08.108Z,98238.44
2022-07-26T17:24:34.732Z,98234.34
2022-07-26T17:27:01.563Z,98231.34
2022-07-26T17:29:28.230Z,98236.44
2022-07-26T17:31:54.994Z,98232.75
2022-07-26T17:34:21.612Z,98234.91
2022-07-26T17:36:48.258Z,98233.50
2022-07-26T17:39:16.235Z,98233.13
2022-07-26T17:41:48.988Z,98234.06
2022-07-26T17:44:16.108Z,98229.91
2022-07-26T17:46:42.887Z,98240.44
2022-07-26T17:49:09.933Z,98236.72
2022-07-26T17:51:37.539Z,98243.03
2022-07-26T17:54:04.230Z,98239.84
2022-07-26T17:56:31.283Z,98238.88
2022-07-26T17:58:57.976Z,98233.13
2022-07-26T18:01:24.742Z,98239.72
2022-07-26T18:03:51.377Z,98235.69
2022-07-26T18:06:18.589Z,98245.94
2022-07-26T18:08:45.212Z,98227.81
2022-07-26T18:11:12.788Z,98228.19
2022-07-26T18:13:39.638Z,98226.72
2022-07-26T18:16:06.538Z,98230.53
2022-07-26T18:18:33.258Z,98228.88
2022-07-26T18:21:00.010Z,98221.66
2022-07-26T18:23:26.837Z,98221.63
2022-07-26T18:25:53.871Z,98218.13
2022-07-26T18:28:20.655Z,98225.72
2022-07-26T18:30:47.295Z,98218.63
2022-07-26T18:33:14.449Z,98224.50
2022-07-26T18:35:41.364Z,98221.00
2022-07-26T18:38:08.050Z,98219.69
2022-07-26T18:40:35.087Z,98220.72
2022-07-26T18:43:01.807Z,98227.09
2022-07-26T18:45:28.395Z,98232.81
2022-07-26T18:47:55.045Z,98230.25
2022-07-26T18:50:21.656Z,98228.75
2022-07-26T18:52:48.947Z,98234.31
2022-07-26T18:55:15.582Z,98234.47
2022-07-26T18:57:43.146Z,98234.28
2022-07-26T19:00:16.945Z,98235.38
2022-07-26T19:02:44.484Z,98237.75
2022-07-26T19:05:11.330Z,98236.19
2022-07-26T19:07:41.139Z,98246.63
2022-07-26T19:10:10.094Z,98250.47
2022-07-26T19:12:37.366Z,98257.50
2022-07-26T19:15:06.343Z,98255.56
2022-07-26T19:17:33.795Z,98260.81
2022-07-26T19:20:00.520Z,98270.97
2022-07-26T19:22:29.080Z,98271.97
2022-07-26T19:24:55.579Z,98277.63
2022-07-26T19:27:22.205Z,98279.38
2022-07-26T19:29:48.884Z,98291.28
2022-07-26T19:32:15.465Z,98280.75
2022-07-26T19:34:42.048Z,98284.03
2022-07-26T19:37:08.586Z,98291.16
2022-07-26T19:39:35.285Z,98293.84
2022-07-26T19:42:01.906Z,98297.28
2022-07-26T19:44:28.509Z,98305.34
2022-07-26T19:46:57.783Z,98302.53
2022-07-26T19:49:24.779Z,98308.44
2022-07-26T19:51:51.405Z,98304.06
2022-07-26T19:54:18.033Z,98300.59
2022-07-26T19:56:44.555Z,98308.31
2022-07-26T19:59:11.519Z,98316.63
2022-07-26T20:01:38.554Z,98309.38
2022-07-26T20:04:05.317Z,98310.59
2022-07-26T20:06:31.884Z,98307.59
2022-07-26T20:08:58.611Z,98310.44
2022-07-26T20:11:25.657Z,98311.28
2022-07-26T20:13:52.391Z,98313.44
2022-07-26T20:16:19.070Z,98312.78
2022-07-26T20:18:45.682Z,98323.94
2022-07-26T20:21:12.268Z,98328.97
2022-07-26T20:23:38.836Z,98317.00
2022-07-26T20:26:05.341Z,98319.69
2022-07-26T20:28:32.207Z,98310.41
2022-07-26T20:30:58.955Z,98312.41
2022-07-26T20:33:25.582Z,98319.78
2022-07-26T20:35:55.014Z,98316.59
2022-07-26T20:38:22.354Z,98322.56
2022-07-26T20:40:49.002Z,98307.78
2022-07-26T20:43:16.334Z,98314.31
2022-07-26T20:45:43.195Z,98316.59
2022-07-26T20:48:10.086Z,98325.13
2022-07-26T20:50:36.679Z,98325.28
2022-07-26T20:53:03.773Z,98316.81
2022-07-26T20:55:30.350Z,98325.84
2022-07-26T20:57:56.930Z,98320.94
2022-07-26T21:00:24.774Z,98316.22
2022-07-26T21:02:53.530Z,98320.44
2022-07-26T21:05:20.203Z,98312.97
2022-07-26T21:07:57.149Z,98314.00
2022-07-26T21:10:27.184Z,98315.66
2022-07-26T21:12:57.075Z,98321.03
2022-07-26T21:15:23.650Z,98324.38
2022-07-26T21:17:50.297Z,98321.41
2022-07-26T21:20:17.104Z,98318.72
2022-07-26T21:22:43.660Z,98320.44
2022-07-26T21:25:10.241Z,98318.97
2022-07-26T21:27:38.214Z,98327.31
2022-07-26T21:30:06.090Z,98326.09
2022-07-26T21:32:32.859Z,98323.47
2022-07-26T21:34:59.532Z,98318.81
2022-07-26T21:37:26.323Z,98326.09
2022-07-26T21:39:53.108Z,98321.56
2022-07-26T21:42:19.819Z,98316.56
2022-07-26T21:44:46.516Z,98317.59
2022-07-26T21:47:13.130Z,98321.47
2022-07-26T21:49:39.865Z,98320.94
2022-07-26T21:52:06.526Z,98317.56
2022-07-26T21:54:33.254Z,98319.00
2022-07-26T21:56:59.899Z,98315.84
2022-07-26T21:59:26.535Z,98316.16
2022-07-26T22:01:53.208Z,98314.53
2022-07-26T22:04:19.931Z,98311.72
2022-07-26T22:06:46.528Z,98317.22
2022-07-26T22:09:13.714Z,98315.84
2022-07-26T22:11:40.780Z,98316.88
2022-07-26T22:14:08.498Z,98313.09
2022-07-26T22:16:35.624Z,98313.56
2022-07-26T22:19:02.578Z,98317.13
2022-07-26T22:21:29.475Z,98319.41
2022-07-26T22:23:56.369Z,98319.53
2022-07-26T22:26:26.846Z,98329.13
2022-07-26T22:28:53.728Z,98319.16
2022-07-26T22:31:20.338Z,98323.38
2022-07-26T22:33:47.004Z,98312.91
2022-07-26T22:36:13.550Z,98323.31
2022-07-26T22:38:40.170Z,98321.94
2022-07-26T22:41:06.733Z,98319.97
2022-07-26T22:43:33.448Z,98325.16
2022-07-26T22:46:00.132Z,98326.13
2022-07-26T22:48:26.777Z,98325.75
2022-07-26T22:50:53.473Z,98323.16
2022-07-26T22:53:19.948Z,98323.75
2022-07-26T22:55:46.600Z,98324.88
2022-07-26T22:58:13.348Z,98327.88
2022-07-26T23:00:39.973Z,98324.22
2022-07-26T23:03:07.803Z,98326.03
2022-07-26T23:05:47.719Z,98323.09
2022-07-26T23:08:44.310Z,98322.25
2022-07-26T23:11:01.691Z,98326.75
2022-07-26T23:13:28.306Z,98319.56
2022-07-26T23:16:00.505Z,98321.41
2022-07-26T23:18:27.764Z,98325.34
2022-07-26T23:20:54.342Z,98321.72
2022-07-26T23:23:21.130Z,98320.03
2022-07-26T23:25:47.753Z,98319.47
2022-07-26T23:28:35.914Z,98323.41
2022-07-26T23:31:06.376Z,98324.38
2022-07-26T23:33:51.730Z,98322.97
2022-07-26T23:36:19.542Z,98327.59
2022-07-26T23:38:46.074Z,98326.91
2022-07-26T23:41:12.592Z,98325.25
2022-07-26T23:43:39.140Z,98330.47
2022-07-26T23:46:05.703Z,98331.53
2022-07-26T23:48:32.325Z,98324.66
2022-07-26T23:50:58.917Z,98324.66
2022-07-26T23:53:26.808Z,98329.72
2022-07-26T23:55:53.806Z,98329.44
2022-07-26T23:58:20.427Z,98329.72
